Time;durP1;ratioP1;P1;durP2;ratioP2;P2;SDS_P1;SDS_P2;PMS_P1;PMS_P2;Temp;Humidity;BMP_temperature;BMP_pressure;BME280_temperature;BME280_humidity;BME280_pressure;Samples;Min_cycle;Max_cycle;Signal;HPM_P1;HPM_P2
2021/09/25 00:00:31;;;;;;;16.90;11.40;;;;;;;;;;4980563;28;20038;-71
2021/09/25 00:02:57;;;;;;;18.25;11.57;;;;;;;;;;4979248;28;20046;-72
2021/09/25 00:05:23;;;;;;;17.40;10.73;;;;;;;;;;4979254;28;20038;-72
2021/09/25 00:07:49;;;;;;;22.90;12.73;;;;;;;;;;4979524;28;20387;-70
2021/09/25 00:10:16;;;;;;;19.27;11.93;;;;;;;;;;4980142;28;20073;-71
2021/09/25 00:12:42;;;;;;;19.30;11.57;;;;;;;;;;4980076;28;20034;-72
2021/09/25 00:15:08;;;;;;;17.38;11.63;;;;;;;;;;4980615;28;20034;-73
2021/09/25 00:17:34;;;;;;;18.60;11.20;;;;;;;;;;4979283;28;20038;-73
2021/09/25 00:19:59;;;;;;;21.30;10.85;;;16.90;99.90;;;;;;4980354;28;20037;-73
2021/09/25 00:22:25;;;;;;;19.08;11.55;;;;;;;;;;4980253;28;20411;-73
2021/09/25 00:24:51;;;;;;;16.67;10.43;;;;;;;;;;4978982;28;20026;-72
2021/09/25 00:27:17;;;;;;;19.25;10.98;;;;;;;;;;4978809;28;20049;-73
2021/09/25 00:29:43;;;;;;;15.10;11.00;;;;;;;;;;4987056;28;20039;-73
2021/09/25 00:32:09;;;;;;;16.13;11.48;;;;;;;;;;4979655;28;20030;-72
2021/09/25 00:34:35;;;;;;;16.95;11.07;;;;;;;;;;4979687;28;20821;-73
2021/09/25 00:37:01;;;;;;;22.85;11.25;;;;;;;;;;4978873;28;20541;-71
2021/09/25 00:39:27;;;;;;;17.63;9.60;;;;;;;;;;4977808;28;20058;-72
2021/09/25 00:41:53;;;;;;;17.63;11.40;;;;;;;;;;4977364;28;20396;-71
2021/09/25 00:44:21;;;;;;;16.30;11.15;;;;;;;;;;4976018;28;20528;-71
2021/09/25 00:46:47;;;;;;;16.88;11.18;;;;;;;;;;4976977;28;20035;-72
2021/09/25 00:49:13;;;;;;;20.70;10.88;;;;;;;;;;4977969;28;20092;-72
2021/09/25 00:51:39;;;;;;;18.15;10.57;;;;;;;;;;4980170;28;20035;-72
2021/09/25 00:54:05;;;;;;;19.17;11.18;;;;;;;;;;4979084;28;20050;-72
2021/09/25 00:56:31;;;;;;;20.02;12.43;;;;;;;;;;4979017;28;20035;-72
2021/09/25 00:58:57;;;;;;;19.55;10.95;;;;;;;;;;4979262;28;20088;-70
2021/09/25 01:01:23;;;;;;;22.35;10.60;;;;;;;;;;4978622;28;20037;-71
2021/09/25 01:03:49;;;;;;;17.77;10.95;;;;;;;;;;4977852;28;20043;-71
2021/09/25 01:06:15;;;;;;;21.27;10.52;;;;;;;;;;4978508;28;20026;-72
2021/09/25 01:08:41;;;;;;;15.55;10.07;;;;;;;;;;4978513;28;20034;-71
2021/09/25 01:11:06;;;;;;;16.70;11.38;;;17.60;99.90;;;;;;4979187;28;20030;-74
2021/09/25 01:13:32;;;;;;;15.05;10.38;;;;;;;;;;4977516;28;20054;-71
2021/09/25 01:15:58;;;;;;;20.05;11.35;;;;;;;;;;4979795;28;20570;-72
2021/09/25 01:18:24;;;;;;;17.52;12.73;;;;;;;;;;4979234;28;20045;-72
2021/09/25 01:20:50;;;;;;;27.58;11.60;;;;;;;;;;4980326;28;20038;-73
2021/09/25 01:23:16;;;;;;;19.00;10.55;;;;;;;;;;4980188;28;20178;-74
2021/09/25 01:25:42;;;;;;;17.45;11.05;;;17.70;99.90;;;;;;4979884;28;20268;-71
2021/09/25 01:28:08;;;;;;;16.80;10.05;;;;;;;;;;4979533;28;20657;-72
2021/09/25 01:30:34;;;;;;;15.57;10.48;;;;;;;;;;4980093;28;20117;-71
2021/09/25 01:33:01;;;;;;;16.52;10.40;;;;;;;;;;4978196;28;20149;-70
2021/09/25 01:35:27;;;;;;;14.02;9.80;;;;;;;;;;4979973;28;20042;-70
2021/09/25 01:37:53;;;;;;;19.92;10.88;;;;;;;;;;4979889;28;20034;-70
2021/09/25 01:40:19;;;;;;;13.60;9.63;;;;;;;;;;4978616;28;20541;-70
2021/09/25 01:42:45;;;;;;;15.38;10.15;;;16.90;99.90;;;;;;4979814;28;20038;-70
2021/09/25 01:45:11;;;;;;;17.60;9.50;;;;;;;;;;4979038;28;20042;-70
2021/09/25 01:47:39;;;;;;;15.18;9.88;;;;;;;;;;4978732;28;20038;-70
2021/09/25 01:50:05;;;;;;;16.60;10.35;;;;;;;;;;4976952;28;20590;-70
2021/09/25 01:52:31;;;;;;;17.55;9.93;;;;;;;;;;4980101;28;20041;-70
2021/09/25 01:54:57;;;;;;;18.48;10.25;;;;;;;;;;4979438;28;20273;-70
2021/09/25 01:57:23;;;;;;;15.02;9.90;;;;;;;;;;4979668;28;20621;-70
2021/09/25 01:59:49;;;;;;;19.27;10.35;;;;;;;;;;4977932;28;20026;-70
2021/09/25 02:02:15;;;;;;;18.90;10.27;;;;;;;;;;4979405;28;20398;-70
2021/09/25 02:04:47;;;;;;;15.88;9.75;;;;;;;;;;4979914;28;20736;-70
2021/09/25 02:07:13;;;;;;;17.00;9.73;;;;;;;;;;4979169;28;20034;-70
2021/09/25 02:09:38;;;;;;;21.10;9.90;;;;;;;;;;4979430;28;20723;-70
2021/09/25 02:12:04;;;;;;;17.10;10.38;;;;;;;;;;4979346;28;20772;-70
2021/09/25 02:14:31;;;;;;;18.77;10.25;;;;;;;;;;4979511;28;20851;-69
2021/09/25 02:16:57;;;;;;;18.75;10.27;;;;;;;;;;4977936;28;20045;-69
2021/09/25 02:19:23;;;;;;;16.80;10.07;;;;;;;;;;4978965;28;20034;-70
2021/09/25 02:21:48;;;;;;;16.35;9.63;;;;;;;;;;4977544;28;20206;-70
2021/09/25 02:24:14;;;;;;;16.23;8.88;;;;;;;;;;4978208;28;20030;-70
2021/09/25 02:26:40;;;;;;;17.80;9.23;;;;;;;;;;4978885;28;20037;-70
2021/09/25 02:29:06;;;;;;;20.02;8.80;;;;;;;;;;4978792;28;20037;-69
2021/09/25 02:31:32;;;;;;;20.15;9.45;;;;;;;;;;4979091;28;20030;-70
2021/09/25 02:33:58;;;;;;;18.48;8.35;;;;;;;;;;4978575;28;20082;-70
2021/09/25 02:36:24;;;;;;;18.15;9.55;;;;;;;;;;4983481;28;20579;-70
2021/09/25 02:38:50;;;;;;;13.70;8.82;;;;;;;;;;4980923;28;20031;-70
2021/09/25 02:41:16;;;;;;;16.00;8.75;;;;;;;;;;4978238;28;20137;-69
2021/09/25 02:43:43;;;;;;;12.85;8.27;;;;;;;;;;4978932;28;20677;-70
2021/09/25 02:46:09;;;;;;;13.68;8.55;;;;;;;;;;4977671;28;20148;-67
2021/09/25 02:48:35;;;;;;;18.77;8.90;;;;;;;;;;4976075;28;20030;-67
2021/09/25 02:51:00;;;;;;;15.63;9.63;;;;;;;;;;4961141;28;20027;-69
2021/09/25 02:53:26;;;;;;;17.65;8.93;;;;;;;;;;4976294;28;20100;-69
2021/09/25 02:55:52;;;;;;;19.38;9.82;;;;;;;;;;4978341;28;20038;-70
2021/09/25 02:58:18;;;;;;;16.25;9.48;;;;;;;;;;4978037;28;20865;-70
2021/09/25 03:00:44;;;;;;;20.92;10.68;;;;;;;;;;4977884;28;20034;-70
2021/09/25 03:03:10;;;;;;;18.52;9.48;;;;;;;;;;4978787;28;20758;-69
2021/09/25 03:05:36;;;;;;;18.08;8.95;;;;;;;;;;4978683;28;20434;-72
2021/09/25 03:08:02;;;;;;;15.52;9.60;;;;;;;;;;4977379;28;20037;-72
2021/09/25 03:10:28;;;;;;;14.82;9.63;;;;;;;;;;4976548;28;20035;-72
2021/09/25 03:12:54;;;;;;;15.10;9.50;;;;;;;;;;4977475;28;20522;-72
2021/09/25 03:15:20;;;;;;;15.43;9.55;;;;;;;;;;4978071;28;20513;-71
2021/09/25 03:17:46;;;;;;;13.57;8.80;;;;;;;;;;4977219;28;20407;-71
2021/09/25 03:20:12;;;;;;;14.15;8.95;;;;;;;;;;4978511;28;20450;-71
2021/09/25 03:22:38;;;;;;;14.52;8.30;;;;;;;;;;4976302;28;20054;-72
2021/09/25 03:25:07;;;;;;;14.50;8.27;;;;;;;;;;4977273;28;20141;-72
2021/09/25 03:27:33;;;;;;;16.08;9.00;;;;;;;;;;4977863;28;20053;-72
2021/09/25 03:29:59;;;;;;;14.38;8.05;;;;;;;;;;4977227;28;20065;-72
2021/09/25 03:32:25;;;;;;;11.68;7.80;;;;;;;;;;4978297;28;20105;-72
2021/09/25 03:34:51;;;;;;;17.00;8.60;;;;;;;;;;4977884;28;20625;-72
2021/09/25 03:37:17;;;;;;;18.77;8.57;;;;;;;;;;4975799;28;20037;-72
2021/09/25 03:39:43;;;;;;;14.75;8.23;;;;;;;;;;4976582;28;20843;-72
2021/09/25 03:42:09;;;;;;;16.38;8.35;;;;;;;;;;4977459;28;20116;-72
2021/09/25 03:44:35;;;;;;;13.00;7.97;;;;;;;;;;4976165;28;20031;-72
2021/09/25 03:47:01;;;;;;;12.13;8.60;;;;;;;;;;4977242;28;20125;-72
2021/09/25 03:49:27;;;;;;;15.15;8.10;;;;;;;;;;4977843;28;20034;-72
2021/09/25 03:51:54;;;;;;;11.85;7.53;;;;;;;;;;4979661;28;20036;-72
2021/09/25 03:54:20;;;;;;;18.95;8.05;;;;;;;;;;4981039;28;20030;-72
2021/09/25 03:56:46;;;;;;;19.80;8.90;;;;;;;;;;4981061;28;20065;-72
2021/09/25 03:59:12;;;;;;;14.75;8.30;;;;;;;;;;4980084;28;20030;-72
2021/09/25 04:01:38;;;;;;;13.02;7.88;;;;;;;;;;4980168;28;20521;-72
2021/09/25 04:04:04;;;;;;;15.23;8.35;;;;;;;;;;4981384;28;20732;-72
2021/09/25 04:06:29;;;;;;;17.48;9.18;;;;;;;;;;4980887;28;20657;-72
2021/09/25 04:08:55;;;;;;;16.73;8.43;;;;;;;;;;4980241;28;20809;-72
2021/09/25 04:11:21;;;;;;;15.20;8.55;;;;;;;;;;4980247;28;20510;-72
2021/09/25 04:13:47;;;;;;;14.80;8.25;;;;;;;;;;4979031;28;20092;-72
2021/09/25 04:16:13;;;;;;;14.25;7.95;;;;;;;;;;4980731;28;20042;-72
2021/09/25 04:18:39;;;;;;;16.45;8.18;;;;;;;;;;4980401;28;20030;-72
2021/09/25 04:21:05;;;;;;;17.15;8.15;;;;;;;;;;4980621;28;20101;-72
2021/09/25 04:23:31;;;;;;;21.00;8.88;;;;;;;;;;4978436;28;20563;-72
2021/09/25 04:25:57;;;;;;;12.65;7.95;;;;;;;;;;4980703;28;20038;-72
2021/09/25 04:28:24;;;;;;;9.40;7.03;;;;;;;;;;4978913;28;20483;-72
2021/09/25 04:30:50;;;;;;;17.33;7.85;;;;;;;;;;4980085;28;20038;-72
2021/09/25 04:33:16;;;;;;;11.52;8.00;;;;;;;;;;4978647;28;20735;-72
2021/09/25 04:35:42;;;;;;;16.55;8.52;;;;;;;;;;4979837;28;20062;-72
2021/09/25 04:38:08;;;;;;;15.68;9.80;;;;;;;;;;4979742;28;20035;-72
2021/09/25 04:40:34;;;;;;;16.05;10.00;;;;;;;;;;4979586;28;20035;-72
2021/09/25 04:43:00;;;;;;;15.00;8.80;;;;;;;;;;4986489;28;20038;-72
2021/09/25 04:45:26;;;;;;;15.70;9.80;;;;;;;;;;4982890;28;20026;-72
2021/09/25 04:47:52;;;;;;;16.25;9.52;;;;;;;;;;4979128;28;20397;-72
2021/09/25 04:50:18;;;;;;;20.40;9.77;;;;;;;;;;4980351;28;20438;-72
2021/09/25 04:52:44;;;;;;;14.93;10.40;;;;;;;;;;4979521;28;20046;-72
2021/09/25 04:55:10;;;;;;;17.45;9.77;;;;;;;;;;4979621;28;20034;-72
2021/09/25 04:57:36;;;;;;;16.63;10.32;;;;;;;;;;4981025;28;20117;-72
2021/09/25 05:00:02;;;;;;;14.98;9.88;;;;;;;;;;4979428;28;20076;-72
2021/09/25 05:02:28;;;;;;;17.23;9.13;;;;;;;;;;4979208;28;20042;-72
2021/09/25 05:04:54;;;;;;;18.92;10.13;;;;;;;;;;4981294;28;20030;-72
2021/09/25 05:07:19;;;;;;;19.77;10.98;;;;;;;;;;4981132;28;20030;-72
2021/09/25 05:09:46;;;;;;;13.65;9.18;;;;;;;;;;4979175;28;20036;-72
2021/09/25 05:12:12;;;;;;;16.77;10.05;;;;;;;;;;4981620;28;20069;-72
2021/09/25 05:14:40;;;;;;;14.45;8.52;;;;;;;;;;4977065;28;20185;-72
2021/09/25 05:17:06;;;;;;;16.10;9.75;;;;;;;;;;4975629;28;20077;-72
2021/09/25 05:19:32;;;;;;;15.50;9.27;;;;;;;;;;4979134;28;20145;-72
2021/09/25 05:21:58;;;;;;;18.50;9.32;;;;;;;;;;4978419;28;20127;-72
2021/09/25 05:24:24;;;;;;;18.55;9.02;;;;;;;;;;4979011;28;20085;-72
2021/09/25 05:26:50;;;;;;;19.35;9.65;;;;;;;;;;4979547;28;20034;-71
2021/09/25 05:29:16;;;;;;;18.58;9.93;;;;;;;;;;4977587;28;20030;-71
2021/09/25 05:31:42;;;;;;;17.60;10.60;;;;;;;;;;4979644;28;20764;-70
2021/09/25 05:34:08;;;;;;;14.57;9.27;;;;;;;;;;4978663;28;20038;-71
2021/09/25 05:36:34;;;;;;;19.95;9.70;;;;;;;;;;4975580;28;20407;-70
2021/09/25 05:39:00;;;;;;;18.38;10.38;;;;;;;;;;4979167;28;20172;-70
2021/09/25 05:41:26;;;;;;;19.02;10.45;;;;;;;;;;4978452;28;20188;-70
2021/09/25 05:43:55;;;;;;;16.10;10.02;;;;;;;;;;4980123;28;20045;-68
2021/09/25 05:46:21;;;;;;;22.92;10.18;;;;;;;;;;4978056;28;20142;-68
2021/09/25 05:48:48;;;;;;;25.13;14.35;;;;;;;;;;4980210;28;20760;-69
2021/09/25 05:51:14;;;;;;;18.38;10.93;;;;;;;;;;4980656;28;20093;-68
2021/09/25 05:53:39;;;;;;;14.93;9.90;;;16.40;99.90;;;;;;4980069;28;20643;-70
2021/09/25 05:56:05;;;;;;;18.00;8.45;;;;;;;;;;4979175;28;20388;-71
2021/09/25 05:58:31;;;;;;;15.27;9.60;;;;;;;;;;4978968;28;20030;-71
2021/09/25 06:00:57;;;;;;;15.13;9.55;;;;;;;;;;4978790;28;20034;-67
2021/09/25 06:03:23;;;;;;;17.50;9.40;;;;;;;;;;4980558;28;20145;-68
2021/09/25 06:05:49;;;;;;;16.20;10.25;;;;;;;;;;4979301;28;20539;-69
2021/09/25 06:08:15;;;;;;;20.67;9.63;;;;;;;;;;4979393;28;20104;-66
2021/09/25 06:10:41;;;;;;;14.77;8.82;;;;;;;;;;4977668;28;20034;-69
2021/09/25 06:13:10;;;;;;;17.15;9.50;;;;;;;;;;4979007;28;20510;-68
2021/09/25 06:15:36;;;;;;;14.95;9.60;;;;;;;;;;4979188;28;20034;-68
2021/09/25 06:18:02;;;;;;;23.25;10.10;;;;;;;;;;4978535;28;20030;-68
2021/09/25 06:20:28;;;;;;;15.63;10.00;;;;;;;;;;4976865;28;20045;-69
2021/09/25 06:22:54;;;;;;;18.08;9.82;;;;;;;;;;4976849;28;20061;-68
2021/09/25 06:25:20;;;;;;;16.50;10.25;;;;;;;;;;4978193;28;20553;-71
2021/09/25 06:27:46;;;;;;;20.92;10.95;;;;;;;;;;4978897;28;20510;-69
2021/09/25 06:30:12;;;;;;;16.90;9.68;;;;;;;;;;4976625;28;20822;-69
2021/09/25 06:32:38;;;;;;;14.73;10.18;;;;;;;;;;4979132;28;20797;-68
2021/09/25 06:35:04;;;;;;;15.98;10.55;;;;;;;;;;4978475;28;20038;-68
2021/09/25 06:37:30;;;;;;;14.45;9.77;;;;;;;;;;4978663;28;20038;-68
2021/09/25 06:39:56;;;;;;;17.65;10.27;;;;;;;;;;4978194;28;20042;-69
2021/09/25 06:42:22;;;;;;;17.13;11.27;;;;;;;;;;4978042;28;20096;-69
2021/09/25 06:44:48;;;;;;;23.17;14.40;;;;;;;;;;4975173;28;20037;-69
2021/09/25 06:47:14;;;;;;;17.02;10.70;;;;;;;;;;4975940;28;20920;-68
2021/09/25 06:49:40;;;;;;;20.08;10.88;;;;;;;;;;4978961;28;20042;-71
2021/09/25 06:52:06;;;;;;;18.58;10.05;;;;;;;;;;4973690;28;20033;-68
2021/09/25 06:54:34;;;;;;;16.73;10.30;;;;;;;;;;4976998;28;20042;-68
2021/09/25 06:57:00;;;;;;;18.08;10.07;;;;;;;;;;4977343;28;20112;-68
2021/09/25 06:59:26;;;;;;;13.20;9.73;;;;;;;;;;4977624;28;20030;-68
2021/09/25 07:01:52;;;;;;;15.13;9.70;;;;;;;;;;4979119;28;20865;-68
2021/09/25 07:04:18;;;;;;;15.65;11.05;;;;;;;;;;4979129;28;20819;-68
2021/09/25 07:06:44;;;;;;;16.10;10.10;;;;;;;;;;4977614;28;20375;-68
2021/09/25 07:09:11;;;;;;;16.63;10.63;;;;;;;;;;4978124;28;20026;-68
2021/09/25 07:11:36;;;;;;;15.88;10.10;;;;;;;;;;4977746;28;20041;-69
2021/09/25 07:14:02;;;;;;;14.73;10.98;;;;;;;;;;4977985;28;20030;-69
2021/09/25 07:16:28;;;;;;;19.25;10.90;;;;;;;;;;4960878;28;20038;-69
2021/09/25 07:18:54;;;;;;;14.00;10.10;;;;;;;;;;4977553;28;20080;-69
2021/09/25 07:21:20;;;;;;;17.50;11.95;;;;;;;;;;4977995;28;20125;-69
2021/09/25 07:23:46;;;;;;;16.85;11.05;;;;;;;;;;4978149;28;20041;-69
2021/09/25 07:26:12;;;;;;;22.05;11.80;;;;;;;;;;4979713;28;20033;-69
2021/09/25 07:28:38;;;;;;;20.20;12.25;;;;;;;;;;4981765;28;20061;-69
2021/09/25 07:31:05;;;;;;;14.27;11.00;;;;;;;;;;4980568;28;20038;-69
2021/09/25 07:33:31;;;;;;;16.55;10.13;;;;;;;;;;4981884;28;20045;-67
2021/09/25 07:35:57;;;;;;;16.10;10.95;;;;;;;;;;4981688;28;20038;-68
2021/09/25 07:38:23;;;;;;;16.10;10.52;;;;;;;;;;4981070;28;20561;-68
2021/09/25 07:40:52;;;;;;;15.05;11.10;;;;;;;;;;4981526;28;20058;-68
2021/09/25 07:43:18;;;;;;;17.52;10.90;;;;;;;;;;4979666;28;20022;-68
2021/09/25 07:45:44;;;;;;;19.00;11.65;;;;;;;;;;4981447;28;20449;-68
2021/09/25 07:48:09;;;;;;;23.10;14.18;;;19.30;99.90;;;;;;4980678;28;20072;-68
2021/09/25 07:50:35;;;;;;;18.20;10.68;;;;;;;;;;4979644;28;20073;-68
2021/09/25 07:53:01;;;;;;;16.40;11.32;;;;;;;;;;4980904;28;20046;-68
2021/09/25 07:55:27;;;;;;;16.55;11.00;;;;;;;;;;4979718;28;20042;-68
2021/09/25 07:57:53;;;;;;;17.45;10.60;;;;;;;;;;4981117;28;20034;-68
2021/09/25 08:00:19;;;;;;;20.15;13.60;;;;;;;;;;4980894;28;20403;-69
2021/09/25 08:02:45;;;;;;;14.52;11.30;;;18.50;99.90;;;;;;4981000;28;20038;-69
2021/09/25 08:05:11;;;;;;;18.13;12.40;;;;;;;;;;4982491;28;20041;-69
2021/09/25 08:07:37;;;;;;;18.30;11.40;;;;;;;;;;4980714;28;20038;-70
2021/09/25 08:10:03;;;;;;;18.08;11.93;;;;;;;;;;4981618;28;20046;-69
2021/09/25 08:12:29;;;;;;;21.38;11.98;;;;;;;;;;4981563;28;20034;-70
2021/09/25 08:14:54;;;;;;;15.35;11.15;;;;;;;;;;4981522;28;20096;-67
2021/09/25 08:17:20;;;;;;;16.08;10.30;;;;;;;;;;4979885;28;20053;-68
2021/09/25 08:19:46;;;;;;;15.15;9.93;;;;;;;;;;4979554;28;20180;-68
2021/09/25 08:22:12;;;;;;;17.27;10.98;;;;;;;;;;4980956;28;20121;-67
2021/09/25 08:24:38;;;;;;;20.00;11.88;;;;;;;;;;4980266;28;20066;-68
2021/09/25 08:27:04;;;;;;;19.80;11.65;;;;;;;;;;4981327;28;20569;-68
2021/09/25 08:29:30;;;;;;;23.95;11.70;;;;;;;;;;4981555;28;20133;-68
2021/09/25 08:31:56;;;;;;;16.17;10.93;;;;;;;;;;4979105;28;20073;-68
2021/09/25 08:34:22;;;;;;;17.33;9.98;;;;;;;;;;4980618;28;20034;-69
2021/09/25 08:36:48;;;;;;;15.52;8.80;;;20.40;99.90;;;;;;4981022;28;20080;-68
2021/09/25 08:39:14;;;;;;;13.52;8.90;;;;;;;;;;4978941;28;20074;-68
2021/09/25 08:41:41;;;;;;;15.35;10.00;;;;;;;;;;4979737;28;20482;-70
2021/09/25 08:44:06;;;;;;;14.68;9.65;;;;;;;;;;4980231;28;20430;-68
2021/09/25 08:46:33;;;;;;;16.35;10.25;;;;;;;;;;4980598;28;20038;-68
2021/09/25 08:48:59;;;;;;;16.38;10.40;;;;;;;;;;4979931;28;20034;-68
2021/09/25 08:51:25;;;;;;;15.13;9.93;;;;;;;;;;4979580;28;20038;-70
2021/09/25 08:53:51;;;;;;;14.10;9.30;;;;;;;;;;4980860;28;20526;-68
2021/09/25 08:56:16;;;;;;;14.07;9.25;;;21.00;99.90;;;;;;4980008;28;20030;-68
2021/09/25 08:58:44;;;;;;;11.93;8.70;;;;;;;;;;4980232;28;20041;-68
2021/09/25 09:01:10;;;;;;;16.05;8.95;;;;;;;;;;4980401;28;20042;-70
2021/09/25 09:03:36;;;;;;;16.15;10.43;;;;;;;;;;4979915;28;20041;-69
2021/09/25 09:06:02;;;;;;;17.17;9.27;;;;;;;;;;4980547;28;20038;-71
2021/09/25 09:08:28;;;;;;;15.35;8.27;;;;;;;;;;4978793;28;20022;-70
2021/09/25 09:10:54;;;;;;;14.15;9.23;;;;;;;;;;4978286;28;20085;-70
2021/09/25 09:13:20;;;;;;;12.25;8.93;;;;;;;;;;4980242;28;20125;-70
2021/09/25 09:15:47;;;;;;;11.73;7.55;;;;;;;;;;4979525;28;20120;-71
2021/09/25 09:18:12;;;;;;;17.73;8.63;;;;;;;;;;4979791;28;20069;-70
2021/09/25 09:20:39;;;;;;;12.90;7.53;;;;;;;;;;4979324;28;20101;-70
2021/09/25 09:23:05;;;;;;;11.05;7.78;;;;;;;;;;4978908;28;20092;-70
2021/09/25 09:25:31;;;;;;;16.55;9.07;;;;;;;;;;4980095;28;20817;-65
2021/09/25 09:27:57;;;;;;;15.15;8.43;;;;;;;;;;4979076;28;20761;-66
2021/09/25 09:30:23;;;;;;;10.80;7.50;;;;;;;;;;4979269;28;20434;-66
2021/09/25 09:32:49;;;;;;;12.63;7.97;;;;;;;;;;4976982;28;20108;-66
2021/09/25 09:35:16;;;;;;;11.07;7.40;;;;;;;;;;4977635;28;20388;-66
2021/09/25 09:37:42;;;;;;;9.73;6.53;;;;;;;;;;4977024;28;20030;-66
2021/09/25 09:40:08;;;;;;;13.32;7.70;;;;;;;;;;4978254;28;20407;-66
2021/09/25 09:42:34;;;;;;;11.43;8.48;;;;;;;;;;4977680;28;20506;-66
2021/09/25 09:45:00;;;;;;;11.27;6.90;;;;;;;;;;4979228;28;20045;-66
2021/09/25 09:47:26;;;;;;;15.82;8.32;;;;;;;;;;4978252;28;20035;-71
2021/09/25 09:49:52;;;;;;;10.63;7.75;;;;;;;;;;4978256;28;20034;-71
2021/09/25 09:52:18;;;;;;;9.40;6.55;;;;;;;;;;4977147;28;20092;-71
2021/09/25 09:54:44;;;;;;;17.77;8.50;;;;;;;;;;4978680;28;20132;-71
2021/09/25 09:57:10;;;;;;;13.30;7.55;;;;;;;;;;4978807;28;20141;-69
2021/09/25 09:59:36;;;;;;;10.43;6.82;;;;;;;;;;4978600;28;20937;-65
2021/09/25 10:02:01;;;;;;;11.10;7.85;;;19.90;99.90;;;;;;4979156;28;20038;-65
2021/09/25 10:04:27;;;;;;;13.02;8.77;;;;;;;;;;4979119;28;20694;-65
2021/09/25 10:06:53;;;;;;;16.17;7.85;;;;;;;;;;4978850;28;20053;-65
2021/09/25 10:09:19;;;;;;;13.23;9.25;;;;;;;;;;4979182;28;20033;-65
2021/09/25 10:11:45;;;;;;;11.95;8.80;;;20.60;99.90;;;;;;4978015;28;20026;-65
2021/09/25 10:14:11;;;;;;;10.38;8.27;;;;;;;;;;4978246;28;20041;-66
2021/09/25 10:16:37;;;;;;;13.45;8.15;;;;;;;;;;4978743;28;20045;-66
2021/09/25 10:19:03;;;;;;;15.32;9.27;;;;;;;;;;4977191;28;20038;-65
2021/09/25 10:21:29;;;;;;;12.77;8.98;;;;;;;;;;4977763;28;20042;-65
2021/09/25 10:23:55;;;;;;;21.67;12.45;;;;;;;;;;4978281;28;20042;-65
2021/09/25 10:26:21;;;;;;;16.42;12.30;;;;;;;;;;4974876;28;20034;-67
2021/09/25 10:28:47;;;;;;;22.15;15.38;;;;;;;;;;4977106;28;20041;-67
2021/09/25 10:31:13;;;;;;;19.52;14.90;;;;;;;;;;4977830;28;20076;-67
2021/09/25 10:33:42;;;;;;;22.80;15.57;;;;;;;;;;4978373;28;20034;-67
2021/09/25 10:36:08;;;;;;;22.40;15.15;;;;;;;;;;4978715;28;20042;-68
2021/09/25 10:38:34;;;;;;;16.83;11.40;;;;;;;;;;4978002;28;20148;-68
2021/09/25 10:41:00;;;;;;;15.85;11.50;;;;;;;;;;4978541;28;20140;-68
2021/09/25 10:43:30;;;;;;;14.88;10.90;;;;;;;;;;4977841;28;20832;-68
2021/09/25 10:45:55;;;;;;;15.05;9.00;;;21.40;99.90;;;;;;4977786;28;20026;-68
2021/09/25 10:48:21;;;;;;;16.98;11.25;;;21.00;99.90;;;;;;4978859;28;20042;-68
2021/09/25 10:50:47;;;;;;;16.25;10.63;;;;;;;;;;4977992;28;20081;-68
2021/09/25 10:53:13;;;;;;;14.32;8.90;;;;;;;;;;4978841;28;20092;-73
2021/09/25 10:55:39;;;;;;;13.80;8.73;;;;;;;;;;4978443;28;20053;-72
2021/09/25 10:58:05;;;;;;;14.95;7.88;;;;;;;;;;4978377;28;20034;-72
2021/09/25 11:00:31;;;;;;;13.98;9.65;;;;;;;;;;4981200;28;20030;-72
2021/09/25 11:02:57;;;;;;;15.95;8.45;;;;;;;;;;4982329;28;20053;-72
2021/09/25 11:05:23;;;;;;;14.68;8.60;;;;;;;;;;4982932;28;20092;-72
2021/09/25 11:07:49;;;;;;;19.38;9.25;;;;;;;;;;4981080;28;20649;-72
2021/09/25 11:10:15;;;;;;;13.35;9.05;;;;;;;;;;4981304;28;20034;-74
2021/09/25 11:12:41;;;;;;;14.82;8.52;;;;;;;;;;4964898;28;20341;-72
2021/09/25 11:15:07;;;;;;;15.43;8.23;;;;;;;;;;4981174;28;20515;-73
2021/09/25 11:17:33;;;;;;;15.60;8.88;;;;;;;;;;4983113;28;20549;-72
2021/09/25 11:19:59;;;;;;;13.90;8.95;;;;;;;;;;4982478;28;20042;-66
2021/09/25 11:22:25;;;;;;;12.40;9.38;;;;;;;;;;4980493;28;20080;-65
2021/09/25 11:24:51;;;;;;;11.27;7.22;;;;;;;;;;4981722;28;20132;-66
2021/09/25 11:27:17;;;;;;;12.52;8.07;;;;;;;;;;4981792;28;20034;-69
2021/09/25 11:29:43;;;;;;;12.13;7.40;;;;;;;;;;4965480;28;20042;-68
2021/09/25 11:32:09;;;;;;;9.45;6.88;;;;;;;;;;4982116;28;20125;-68
2021/09/25 11:34:34;;;;;;;12.07;6.65;;;22.80;99.90;;;;;;4981761;28;20034;-68
2021/09/25 11:37:00;;;;;;;9.57;7.32;;;;;;;;;;4980917;28;20038;-68
2021/09/25 11:39:26;;;;;;;12.25;6.88;;;;;;;;;;4981800;28;20035;-68
2021/09/25 11:41:52;;;;;;;10.27;6.70;;;;;;;;;;4981746;28;20053;-68
2021/09/25 11:44:18;;;;;;;11.40;6.57;;;;;;;;;;4981391;28;20041;-68
2021/09/25 11:46:44;;;;;;;10.38;6.38;;;;;;;;;;4982478;28;20304;-69
2021/09/25 11:49:10;;;;;;;11.93;7.57;;;;;;;;;;4981600;28;20027;-68
2021/09/25 11:51:36;;;;;;;10.25;6.40;;;;;;;;;;4981188;28;20038;-68
2021/09/25 11:54:02;;;;;;;9.65;6.55;;;;;;;;;;4979552;28;20041;-67
2021/09/25 11:56:28;;;;;;;10.05;5.72;;;;;;;;;;4980918;28;20046;-68
2021/09/25 11:58:53;;;;;;;7.15;5.30;;;23.40;99.90;;;;;;4979786;28;20501;-73
2021/09/25 12:01:19;;;;;;;12.75;6.32;;;23.70;99.90;;;;;;4980014;28;20030;-71
2021/09/25 12:03:44;;;;;;;11.63;6.65;;;23.90;99.90;;;;;;4978780;28;20042;-72
2021/09/25 12:06:10;;;;;;;12.02;5.15;;;23.90;99.90;;;;;;4981695;28;20479;-71
2021/09/25 12:08:35;;;;;;;10.18;5.60;;;24.10;99.90;;;;;;4979627;28;20034;-72
2021/09/25 12:11:01;;;;;;;10.07;5.20;;;24.20;99.90;;;;;;4979630;28;20030;-71
2021/09/25 12:13:26;;;;;;;7.18;4.63;;;24.30;99.90;;;;;;4981200;28;20423;-71
2021/09/25 12:15:53;;;;;;;7.00;5.05;;;;;;;;;;4979905;28;20073;-70
2021/09/25 12:18:18;;;;;;;9.30;5.43;;;24.50;99.90;;;;;;4979828;28;20038;-71
2021/09/25 12:20:44;;;;;;;8.27;5.30;;;24.40;99.90;;;;;;4984097;28;20132;-71
2021/09/25 12:23:09;;;;;;;9.15;5.20;;;24.30;99.90;;;;;;4981539;28;20053;-71
2021/09/25 12:25:35;;;;;;;9.93;4.45;;;24.20;99.90;;;;;;4980516;28;20248;-71
2021/09/25 12:28:00;;;;;;;8.82;5.68;;;24.10;99.90;;;;;;4978451;28;20563;-72
2021/09/25 12:30:26;;;;;;;9.02;5.90;;;24.00;99.90;;;;;;4981632;28;20083;-72
2021/09/25 12:32:51;;;;;;;7.18;4.72;;;23.80;99.90;;;;;;4977190;28;20037;-70
2021/09/25 12:35:17;;;;;;;6.47;4.97;;;23.80;99.90;;;;;;4981348;28;20897;-70
2021/09/25 12:37:42;;;;;;;6.38;3.65;;;23.80;99.90;;;;;;4978409;28;20065;-71
2021/09/25 12:40:08;;;;;;;7.78;4.53;;;23.60;99.90;;;;;;4975312;28;20921;-71
2021/09/25 12:42:33;;;;;;;9.38;4.85;;;23.50;99.90;;;;;;4976683;28;20626;-70
2021/09/25 12:44:59;;;;;;;8.13;5.50;;;23.40;99.90;;;;;;4967072;28;20026;-71
2021/09/25 12:47:24;;;;;;;8.50;5.60;;;23.50;99.90;;;;;;4979127;28;20562;-71
2021/09/25 12:49:50;;;;;;;8.38;4.80;;;23.50;99.90;;;;;;4979754;28;20144;-71
2021/09/25 12:52:17;;;;;;;6.95;4.55;;;23.30;99.90;;;;;;4978274;28;20031;-69
2021/09/25 12:54:42;;;;;;;9.30;4.82;;;23.30;99.90;;;;;;4978952;28;20040;-71
2021/09/25 12:57:08;;;;;;;8.38;5.30;;;23.30;99.90;;;;;;4977850;28;20030;-70
2021/09/25 12:59:33;;;;;;;9.73;4.18;;;23.10;99.90;;;;;;4977720;28;20677;-71
2021/09/25 13:01:59;;;;;;;5.75;4.47;;;23.10;99.90;;;;;;4978065;28;20790;-71
2021/09/25 13:04:24;;;;;;;8.13;5.15;;;23.20;99.90;;;;;;4978587;28;20045;-70
2021/09/25 13:06:50;;;;;;;8.90;5.50;;;23.30;99.90;;;;;;4979423;28;20045;-70
2021/09/25 13:09:15;;;;;;;10.35;4.80;;;23.40;99.90;;;;;;4978166;28;20030;-70
2021/09/25 13:11:41;;;;;;;6.82;4.38;;;23.30;99.90;;;;;;4979094;28;20030;-70
2021/09/25 13:14:06;;;;;;;11.45;6.13;;;23.30;99.90;;;;;;4979460;28;20100;-69
2021/09/25 13:16:32;;;;;;;9.27;5.53;;;23.30;99.90;;;;;;4979126;28;20089;-71
2021/09/25 13:18:59;;;;;;;7.60;4.70;;;23.30;99.90;;;;;;4978922;28;20050;-72
2021/09/25 13:21:25;;;;;;;7.30;4.93;;;23.20;99.90;;;;;;4979189;28;20145;-71
2021/09/25 13:23:50;;;;;;;9.30;5.80;;;23.20;99.90;;;;;;4977451;28;20041;-71
2021/09/25 13:26:16;;;;;;;8.55;4.63;;;22.80;99.90;;;;;;4977938;28;20062;-71
2021/09/25 13:28:41;;;;;;;8.18;5.30;;;23.10;99.90;;;;;;4979114;28;20026;-71
2021/09/25 13:31:08;;;;;;;7.35;5.00;;;23.10;99.90;;;;;;4978467;28;20412;-71
2021/09/25 13:33:33;;;;;;;8.73;5.07;;;22.90;99.90;;;;;;4978469;28;20122;-71
2021/09/25 13:35:59;;;;;;;7.32;5.05;;;23.00;99.90;;;;;;4975702;28;20044;-72
2021/09/25 13:38:24;;;;;;;7.20;4.70;;;22.80;99.90;;;;;;4977154;28;20073;-72
2021/09/25 13:40:50;;;;;;;7.90;4.32;;;22.80;99.90;;;;;;4976628;28;20045;-71
2021/09/25 13:43:15;;;;;;;8.05;5.40;;;22.80;99.90;;;;;;4976281;28;20141;-71
2021/09/25 13:45:41;;;;;;;7.97;4.88;;;22.80;99.90;;;;;;4978319;28;20340;-70
2021/09/25 13:48:06;;;;;;;8.75;3.90;;;22.70;99.90;;;;;;4977629;28;20069;-70
2021/09/25 13:50:33;;;;;;;10.85;4.72;;;22.70;99.90;;;;;;4977372;28;20038;-70
2021/09/25 13:52:58;;;;;;;6.25;4.55;;;22.60;99.90;;;;;;4978880;28;20115;-69
2021/09/25 13:55:24;;;;;;;6.25;4.05;;;22.60;99.90;;;;;;4977681;28;20035;-69